sensor_id;sensor_type;location;lat;lon;timestamp;pressure;altitude;pressure_sealevel;temperature
56286;BMP180;42191;47.562;9.686;2023-04-28T00:02:07;96739.00;;;17.90
56286;BMP180;42191;47.562;9.686;2023-04-28T00:04:33;96740.00;;;17.90
56286;BMP180;42191;47.562;9.686;2023-04-28T00:06:59;96744.00;;;17.90
56286;BMP180;42191;47.562;9.686;2023-04-28T00:09:25;96744.00;;;17.90
56286;BMP180;42191;47.562;9.686;2023-04-28T00:11:52;96740.00;;;17.90
56286;BMP180;42191;47.562;9.686;2023-04-28T00:14:18;96742.00;;;17.90
56286;BMP180;42191;47.562;9.686;2023-04-28T00:16:44;96740.00;;;17.90
56286;BMP180;42191;47.562;9.686;2023-04-28T00:19:10;96736.00;;;17.90
56286;BMP180;42191;47.562;9.686;2023-04-28T00:21:37;96731.00;;;17.90
56286;BMP180;42191;47.562;9.686;2023-04-28T00:24:03;96716.00;;;17.90
56286;BMP180;42191;47.562;9.686;2023-04-28T00:26:29;96735.00;;;17.80
56286;BMP180;42191;47.562;9.686;2023-04-28T00:28:55;96720.00;;;17.90
56286;BMP180;42191;47.562;9.686;2023-04-28T00:31:21;96728.00;;;17.90
56286;BMP180;42191;47.562;9.686;2023-04-28T00:33:48;96726.00;;;17.80
56286;BMP180;42191;47.562;9.686;2023-04-28T00:36:14;96731.00;;;17.80
56286;BMP180;42191;47.562;9.686;2023-04-28T00:38:40;96721.00;;;17.80
56286;BMP180;42191;47.562;9.686;2023-04-28T00:41:09;96722.00;;;17.80
56286;BMP180;42191;47.562;9.686;2023-04-28T00:43:46;96722.00;;;17.80
56286;BMP180;42191;47.562;9.686;2023-04-28T00:46:21;96727.00;;;17.80
56286;BMP180;42191;47.562;9.686;2023-04-28T00:48:48;96727.00;;;17.80
56286;BMP180;42191;47.562;9.686;2023-04-28T00:51:15;96718.00;;;17.80
56286;BMP180;42191;47.562;9.686;2023-04-28T00:53:43;96722.00;;;17.80
56286;BMP180;42191;47.562;9.686;2023-04-28T00:56:10;96721.00;;;17.80
56286;BMP180;42191;47.562;9.686;2023-04-28T00:58:37;96709.00;;;17.80
56286;BMP180;42191;47.562;9.686;2023-04-28T01:01:07;96714.00;;;17.70
56286;BMP180;42191;47.562;9.686;2023-04-28T01:03:36;96716.00;;;17.70
56286;BMP180;42191;47.562;9.686;2023-04-28T01:06:04;96720.00;;;17.70
56286;BMP180;42191;47.562;9.686;2023-04-28T01:08:32;96710.00;;;17.70
56286;BMP180;42191;47.562;9.686;2023-04-28T01:10:58;96709.00;;;17.70
56286;BMP180;42191;47.562;9.686;2023-04-28T01:13:24;96703.00;;;17.70
56286;BMP180;42191;47.562;9.686;2023-04-28T01:15:51;96705.00;;;17.70
56286;BMP180;42191;47.562;9.686;2023-04-28T01:18:17;96707.00;;;17.70
56286;BMP180;42191;47.562;9.686;2023-04-28T01:20:43;96694.00;;;17.70
56286;BMP180;42191;47.562;9.686;2023-04-28T01:23:14;96692.00;;;17.70
56286;BMP180;42191;47.562;9.686;2023-04-28T01:25:41;96697.00;;;17.70
56286;BMP180;42191;47.562;9.686;2023-04-28T01:28:09;96683.00;;;17.70
56286;BMP180;42191;47.562;9.686;2023-04-28T01:30:35;96674.00;;;17.70
56286;BMP180;42191;47.562;9.686;2023-04-28T01:33:02;96682.00;;;17.70
56286;BMP180;42191;47.562;9.686;2023-04-28T01:35:28;96676.00;;;17.70
56286;BMP180;42191;47.562;9.686;2023-04-28T01:37:54;96667.00;;;17.70
56286;BMP180;42191;47.562;9.686;2023-04-28T01:40:20;96673.00;;;17.70
56286;BMP180;42191;47.562;9.686;2023-04-28T01:42:46;96672.00;;;17.70
56286;BMP180;42191;47.562;9.686;2023-04-28T01:45:13;96673.00;;;17.70
56286;BMP180;42191;47.562;9.686;2023-04-28T01:47:39;96682.00;;;17.70
56286;BMP180;42191;47.562;9.686;2023-04-28T01:50:05;96681.00;;;17.70
56286;BMP180;42191;47.562;9.686;2023-04-28T01:52:32;96683.00;;;17.70
56286;BMP180;42191;47.562;9.686;2023-04-28T01:54:58;96670.00;;;17.70
56286;BMP180;42191;47.562;9.686;2023-04-28T01:57:24;96666.00;;;17.70
56286;BMP180;42191;47.562;9.686;2023-04-28T01:59:50;96670.00;;;17.70
56286;BMP180;42191;47.562;9.686;2023-04-28T02:02:17;96673.00;;;17.70
56286;BMP180;42191;47.562;9.686;2023-04-28T02:04:43;96689.00;;;17.70
56286;BMP180;42191;47.562;9.686;2023-04-28T02:07:10;96688.00;;;17.70
56286;BMP180;42191;47.562;9.686;2023-04-28T02:09:36;96680.00;;;17.70
56286;BMP180;42191;47.562;9.686;2023-04-28T02:12:02;96691.00;;;17.70
56286;BMP180;42191;47.562;9.686;2023-04-28T02:14:28;96681.00;;;17.70
56286;BMP180;42191;47.562;9.686;2023-04-28T02:16:58;96700.00;;;17.70
56286;BMP180;42191;47.562;9.686;2023-04-28T02:19:24;96685.00;;;17.80
56286;BMP180;42191;47.562;9.686;2023-04-28T02:21:50;96672.00;;;17.80
56286;BMP180;42191;47.562;9.686;2023-04-28T02:24:16;96680.00;;;17.80
56286;BMP180;42191;47.562;9.686;2023-04-28T02:26:42;96672.00;;;17.80
56286;BMP180;42191;47.562;9.686;2023-04-28T02:29:08;96658.00;;;17.80
56286;BMP180;42191;47.562;9.686;2023-04-28T02:31:34;96665.00;;;17.80
56286;BMP180;42191;47.562;9.686;2023-04-28T02:34:00;96667.00;;;17.80
56286;BMP180;42191;47.562;9.686;2023-04-28T02:36:26;96674.00;;;17.80
56286;BMP180;42191;47.562;9.686;2023-04-28T02:38:53;96685.00;;;17.80
56286;BMP180;42191;47.562;9.686;2023-04-28T02:41:19;96680.00;;;17.80
56286;BMP180;42191;47.562;9.686;2023-04-28T02:43:45;96686.00;;;17.80
56286;BMP180;42191;47.562;9.686;2023-04-28T02:46:11;96701.00;;;17.80
56286;BMP180;42191;47.562;9.686;2023-04-28T02:48:37;96684.00;;;17.80
56286;BMP180;42191;47.562;9.686;2023-04-28T02:51:04;96701.00;;;17.80
56286;BMP180;42191;47.562;9.686;2023-04-28T02:53:30;96709.00;;;17.80
56286;BMP180;42191;47.562;9.686;2023-04-28T02:55:56;96719.00;;;17.80
56286;BMP180;42191;47.562;9.686;2023-04-28T02:58:22;96728.00;;;17.80
56286;BMP180;42191;47.562;9.686;2023-04-28T03:00:48;96724.00;;;17.80
56286;BMP180;42191;47.562;9.686;2023-04-28T03:03:15;96749.00;;;17.80
56286;BMP180;42191;47.562;9.686;2023-04-28T03:05:41;96784.00;;;17.80
56286;BMP180;42191;47.562;9.686;2023-04-28T03:08:07;96799.00;;;17.80
56286;BMP180;42191;47.562;9.686;2023-04-28T03:10:33;96785.00;;;17.70
56286;BMP180;42191;47.562;9.686;2023-04-28T03:12:59;96778.00;;;17.60
56286;BMP180;42191;47.562;9.686;2023-04-28T03:15:25;96791.00;;;17.50
56286;BMP180;42191;47.562;9.686;2023-04-28T03:17:51;96783.00;;;17.20
56286;BMP180;42191;47.562;9.686;2023-04-28T03:20:17;96774.00;;;17.00
56286;BMP180;42191;47.562;9.686;2023-04-28T03:22:43;96773.00;;;16.90
56286;BMP180;42191;47.562;9.686;2023-04-28T03:25:09;96766.00;;;16.80
56286;BMP180;42191;47.562;9.686;2023-04-28T03:27:36;96761.00;;;16.70
56286;BMP180;42191;47.562;9.686;2023-04-28T03:30:02;96754.00;;;16.70
56286;BMP180;42191;47.562;9.686;2023-04-28T03:32:28;96749.00;;;16.60
56286;BMP180;42191;47.562;9.686;2023-04-28T03:34:54;96746.00;;;16.60
56286;BMP180;42191;47.562;9.686;2023-04-28T03:37:20;96755.00;;;16.60
56286;BMP180;42191;47.562;9.686;2023-04-28T03:39:47;96748.00;;;16.50
56286;BMP180;42191;47.562;9.686;2023-04-28T03:42:13;96760.00;;;16.50
56286;BMP180;42191;47.562;9.686;2023-04-28T03:44:39;96776.00;;;16.50
56286;BMP180;42191;47.562;9.686;2023-04-28T03:47:05;96776.00;;;16.40
56286;BMP180;42191;47.562;9.686;2023-04-28T03:49:31;96780.00;;;16.40
56286;BMP180;42191;47.562;9.686;2023-04-28T03:51:57;96775.00;;;16.30
56286;BMP180;42191;47.562;9.686;2023-04-28T03:54:23;96789.00;;;16.30
56286;BMP180;42191;47.562;9.686;2023-04-28T03:56:50;96794.00;;;16.30
56286;BMP180;42191;47.562;9.686;2023-04-28T03:59:16;96793.00;;;16.30
56286;BMP180;42191;47.562;9.686;2023-04-28T04:01:42;96794.00;;;16.30
56286;BMP180;42191;47.562;9.686;2023-04-28T04:04:08;96785.00;;;16.30
56286;BMP180;42191;47.562;9.686;2023-04-28T04:06:34;96795.00;;;16.30
56286;BMP180;42191;47.562;9.686;2023-04-28T04:09:01;96794.00;;;16.30
56286;BMP180;42191;47.562;9.686;2023-04-28T04:11:27;96797.00;;;16.30
56286;BMP180;42191;47.562;9.686;2023-04-28T04:13:53;96793.00;;;16.30
56286;BMP180;42191;47.562;9.686;2023-04-28T04:16:19;96796.00;;;16.30
56286;BMP180;42191;47.562;9.686;2023-04-28T04:18:46;96804.00;;;16.20
56286;BMP180;42191;47.562;9.686;2023-04-28T04:21:12;96801.00;;;16.20
56286;BMP180;42191;47.562;9.686;2023-04-28T04:23:38;96796.00;;;16.20
56286;BMP180;42191;47.562;9.686;2023-04-28T04:26:04;96797.00;;;16.20
56286;BMP180;42191;47.562;9.686;2023-04-28T04:28:31;96805.00;;;16.20
56286;BMP180;42191;47.562;9.686;2023-04-28T04:30:57;96794.00;;;16.20
56286;BMP180;42191;47.562;9.686;2023-04-28T04:33:23;96798.00;;;16.20
56286;BMP180;42191;47.562;9.686;2023-04-28T04:35:50;96790.00;;;16.20
56286;BMP180;42191;47.562;9.686;2023-04-28T04:38:16;96789.00;;;16.20
56286;BMP180;42191;47.562;9.686;2023-04-28T04:40:42;96784.00;;;16.20
56286;BMP180;42191;47.562;9.686;2023-04-28T04:43:08;96787.00;;;16.20
56286;BMP180;42191;47.562;9.686;2023-04-28T04:45:34;96809.00;;;16.20
56286;BMP180;42191;47.562;9.686;2023-04-28T04:48:00;96809.00;;;16.20
56286;BMP180;42191;47.562;9.686;2023-04-28T04:50:27;96785.00;;;16.20
56286;BMP180;42191;47.562;9.686;2023-04-28T04:52:53;96764.00;;;16.20
56286;BMP180;42191;47.562;9.686;2023-04-28T04:55:21;96792.00;;;16.20
56286;BMP180;42191;47.562;9.686;2023-04-28T04:57:47;96827.00;;;16.10
56286;BMP180;42191;47.562;9.686;2023-04-28T05:00:13;96834.00;;;16.10
56286;BMP180;42191;47.562;9.686;2023-04-28T05:02:41;96816.00;;;16.00
56286;BMP180;42191;47.562;9.686;2023-04-28T05:05:08;96796.00;;;16.00
56286;BMP180;42191;47.562;9.686;2023-04-28T05:07:34;96800.00;;;16.00
56286;BMP180;42191;47.562;9.686;2023-04-28T05:10:00;96815.00;;;16.00
56286;BMP180;42191;47.562;9.686;2023-04-28T05:12:26;96814.00;;;16.00
56286;BMP180;42191;47.562;9.686;2023-04-28T05:14:52;96811.00;;;16.00
56286;BMP180;42191;47.562;9.686;2023-04-28T05:17:18;96816.00;;;16.00
56286;BMP180;42191;47.562;9.686;2023-04-28T05:19:45;96809.00;;;16.00
56286;BMP180;42191;47.562;9.686;2023-04-28T05:22:11;96808.00;;;16.00
56286;BMP180;42191;47.562;9.686;2023-04-28T05:24:37;96817.00;;;16.00
56286;BMP180;42191;47.562;9.686;2023-04-28T05:27:03;96813.00;;;16.00
56286;BMP180;42191;47.562;9.686;2023-04-28T05:29:29;96807.00;;;16.00
56286;BMP180;42191;47.562;9.686;2023-04-28T05:31:55;96809.00;;;16.00
56286;BMP180;42191;47.562;9.686;2023-04-28T05:34:21;96817.00;;;15.90
56286;BMP180;42191;47.562;9.686;2023-04-28T05:36:47;96813.00;;;15.90
56286;BMP180;42191;47.562;9.686;2023-04-28T05:39:14;96802.00;;;15.90
56286;BMP180;42191;47.562;9.686;2023-04-28T05:41:40;96794.00;;;15.90
56286;BMP180;42191;47.562;9.686;2023-04-28T05:44:06;96792.00;;;15.90
56286;BMP180;42191;47.562;9.686;2023-04-28T05:46:32;96796.00;;;15.90
56286;BMP180;42191;47.562;9.686;2023-04-28T05:48:58;96785.00;;;15.80
56286;BMP180;42191;47.562;9.686;2023-04-28T05:51:25;96773.00;;;15.80
56286;BMP180;42191;47.562;9.686;2023-04-28T05:53:52;96786.00;;;15.80
56286;BMP180;42191;47.562;9.686;2023-04-28T05:56:18;96778.00;;;15.80
56286;BMP180;42191;47.562;9.686;2023-04-28T05:58:45;96750.00;;;15.70
56286;BMP180;42191;47.562;9.686;2023-04-28T06:01:12;96758.00;;;15.70
56286;BMP180;42191;47.562;9.686;2023-04-28T06:03:38;96760.00;;;15.70
56286;BMP180;42191;47.562;9.686;2023-04-28T06:06:08;96750.00;;;15.60
56286;BMP180;42191;47.562;9.686;2023-04-28T06:08:34;96770.00;;;15.60
56286;BMP180;42191;47.562;9.686;2023-04-28T06:11:01;96789.00;;;15.60
56286;BMP180;42191;47.562;9.686;2023-04-28T06:13:27;96802.00;;;15.60
56286;BMP180;42191;47.562;9.686;2023-04-28T06:15:53;96792.00;;;15.60
56286;BMP180;42191;47.562;9.686;2023-04-28T06:18:19;96778.00;;;15.60
56286;BMP180;42191;47.562;9.686;2023-04-28T06:20:45;96779.00;;;15.50
56286;BMP180;42191;47.562;9.686;2023-04-28T06:23:12;96780.00;;;15.50
56286;BMP180;42191;47.562;9.686;2023-04-28T06:25:38;96773.00;;;15.50
56286;BMP180;42191;47.562;9.686;2023-04-28T06:28:05;96781.00;;;15.50
56286;BMP180;42191;47.562;9.686;2023-04-28T06:30:33;96792.00;;;15.50
56286;BMP180;42191;47.562;9.686;2023-04-28T06:32:59;96796.00;;;15.50
56286;BMP180;42191;47.562;9.686;2023-04-28T06:35:25;96788.00;;;15.50
56286;BMP180;42191;47.562;9.686;2023-04-28T06:37:52;96792.00;;;15.50
56286;BMP180;42191;47.562;9.686;2023-04-28T06:40:18;96797.00;;;15.50
56286;BMP180;42191;47.562;9.686;2023-04-28T06:42:44;96790.00;;;15.60
56286;BMP180;42191;47.562;9.686;2023-04-28T06:45:10;96792.00;;;15.60
56286;BMP180;42191;47.562;9.686;2023-04-28T06:47:36;96781.00;;;15.60
56286;BMP180;42191;47.562;9.686;2023-04-28T06:50:03;96785.00;;;15.60
56286;BMP180;42191;47.562;9.686;2023-04-28T06:52:29;96769.00;;;15.60
56286;BMP180;42191;47.562;9.686;2023-04-28T06:54:55;96773.00;;;15.60
56286;BMP180;42191;47.562;9.686;2023-04-28T06:57:21;96777.00;;;15.60
56286;BMP180;42191;47.562;9.686;2023-04-28T06:59:48;96773.00;;;15.60
56286;BMP180;42191;47.562;9.686;2023-04-28T07:02:14;96775.00;;;15.70
56286;BMP180;42191;47.562;9.686;2023-04-28T07:04:40;96785.00;;;15.70
56286;BMP180;42191;47.562;9.686;2023-04-28T07:07:07;96768.00;;;15.70
56286;BMP180;42191;47.562;9.686;2023-04-28T07:09:36;96761.00;;;15.70
56286;BMP180;42191;47.562;9.686;2023-04-28T07:12:02;96763.00;;;15.70
56286;BMP180;42191;47.562;9.686;2023-04-28T07:14:31;96775.00;;;15.70
56286;BMP180;42191;47.562;9.686;2023-04-28T07:16:58;96772.00;;;15.70
56286;BMP180;42191;47.562;9.686;2023-04-28T07:19:24;96769.00;;;15.80
56286;BMP180;42191;47.562;9.686;2023-04-28T07:21:50;96771.00;;;15.80
56286;BMP180;42191;47.562;9.686;2023-04-28T07:24:16;96771.00;;;15.80
56286;BMP180;42191;47.562;9.686;2023-04-28T07:26:42;96781.00;;;15.80
56286;BMP180;42191;47.562;9.686;2023-04-28T07:29:08;96769.00;;;15.80
56286;BMP180;42191;47.562;9.686;2023-04-28T07:31:35;96774.00;;;15.80
56286;BMP180;42191;47.562;9.686;2023-04-28T07:34:01;96776.00;;;15.80
56286;BMP180;42191;47.562;9.686;2023-04-28T07:36:27;96774.00;;;15.80
56286;BMP180;42191;47.562;9.686;2023-04-28T07:38:53;96762.00;;;15.80
56286;BMP180;42191;47.562;9.686;2023-04-28T07:41:19;96776.00;;;15.80
56286;BMP180;42191;47.562;9.686;2023-04-28T07:43:45;96757.00;;;15.70
56286;BMP180;42191;47.562;9.686;2023-04-28T07:46:12;96771.00;;;15.70
56286;BMP180;42191;47.562;9.686;2023-04-28T07:48:38;96760.00;;;15.70
56286;BMP180;42191;47.562;9.686;2023-04-28T07:51:04;96757.00;;;15.70
56286;BMP180;42191;47.562;9.686;2023-04-28T07:53:31;96752.00;;;15.70
56286;BMP180;42191;47.562;9.686;2023-04-28T07:55:57;96749.00;;;15.70
56286;BMP180;42191;47.562;9.686;2023-04-28T07:58:23;96760.00;;;15.70
56286;BMP180;42191;47.562;9.686;2023-04-28T08:00:49;96740.00;;;15.70
56286;BMP180;42191;47.562;9.686;2023-04-28T08:03:15;96758.00;;;15.70
56286;BMP180;42191;47.562;9.686;2023-04-28T08:05:41;96758.00;;;15.70
56286;BMP180;42191;47.562;9.686;2023-04-28T08:08:07;96768.00;;;15.70
56286;BMP180;42191;47.562;9.686;2023-04-28T08:10:33;96767.00;;;15.70
56286;BMP180;42191;47.562;9.686;2023-04-28T08:12:59;96783.00;;;15.70
56286;BMP180;42191;47.562;9.686;2023-04-28T08:15:26;96785.00;;;15.70
56286;BMP180;42191;47.562;9.686;2023-04-28T08:17:52;96794.00;;;15.70
56286;BMP180;42191;47.562;9.686;2023-04-28T08:20:19;96797.00;;;15.70
56286;BMP180;42191;47.562;9.686;2023-04-28T08:22:45;96814.00;;;15.70
56286;BMP180;42191;47.562;9.686;2023-04-28T08:25:11;96824.00;;;15.60
56286;BMP180;42191;47.562;9.686;2023-04-28T08:27:37;96830.00;;;15.60
56286;BMP180;42191;47.562;9.686;2023-04-28T08:30:07;96833.00;;;15.60
56286;BMP180;42191;47.562;9.686;2023-04-28T08:32:33;96826.00;;;15.60
56286;BMP180;42191;47.562;9.686;2023-04-28T08:34:59;96811.00;;;15.60
56286;BMP180;42191;47.562;9.686;2023-04-28T08:37:28;96814.00;;;15.60
56286;BMP180;42191;47.562;9.686;2023-04-28T08:39:55;96840.00;;;15.60
56286;BMP180;42191;47.562;9.686;2023-04-28T08:42:30;96831.00;;;15.60
56286;BMP180;42191;47.562;9.686;2023-04-28T08:44:58;96817.00;;;15.60
56286;BMP180;42191;47.562;9.686;2023-04-28T08:47:36;96800.00;;;15.60
56286;BMP180;42191;47.562;9.686;2023-04-28T08:50:07;96849.00;;;15.60
56286;BMP180;42191;47.562;9.686;2023-04-28T08:52:34;96814.00;;;15.70
56286;BMP180;42191;47.562;9.686;2023-04-28T08:55:07;96830.00;;;15.70
56286;BMP180;42191;47.562;9.686;2023-04-28T08:57:53;96822.00;;;15.70
56286;BMP180;42191;47.562;9.686;2023-04-28T09:00:20;96817.00;;;15.70
56286;BMP180;42191;47.562;9.686;2023-04-28T09:02:46;96823.00;;;15.70
56286;BMP180;42191;47.562;9.686;2023-04-28T09:05:13;96834.00;;;15.80
56286;BMP180;42191;47.562;9.686;2023-04-28T09:07:40;96825.00;;;15.80
56286;BMP180;42191;47.562;9.686;2023-04-28T09:10:19;96832.00;;;15.80
56286;BMP180;42191;47.562;9.686;2023-04-28T09:12:47;96816.00;;;15.80
56286;BMP180;42191;47.562;9.686;2023-04-28T09:15:33;96790.00;;;15.80
56286;BMP180;42191;47.562;9.686;2023-04-28T09:18:03;96809.00;;;15.80
56286;BMP180;42191;47.562;9.686;2023-04-28T09:20:30;96803.00;;;15.90
56286;BMP180;42191;47.562;9.686;2023-04-28T09:23:18;96807.00;;;15.90
56286;BMP180;42191;47.562;9.686;2023-04-28T09:26:00;96806.00;;;15.90
56286;BMP180;42191;47.562;9.686;2023-04-28T09:28:26;96823.00;;;15.80
56286;BMP180;42191;47.562;9.686;2023-04-28T09:30:53;96821.00;;;15.80
56286;BMP180;42191;47.562;9.686;2023-04-28T09:33:19;96828.00;;;15.80
56286;BMP180;42191;47.562;9.686;2023-04-28T09:35:47;96835.00;;;15.80
56286;BMP180;42191;47.562;9.686;2023-04-28T09:38:14;96835.00;;;15.90
56286;BMP180;42191;47.562;9.686;2023-04-28T09:41:00;96829.00;;;15.80
56286;BMP180;42191;47.562;9.686;2023-04-28T09:43:35;96830.00;;;15.80
56286;BMP180;42191;47.562;9.686;2023-04-28T09:46:03;96827.00;;;15.90
56286;BMP180;42191;47.562;9.686;2023-04-28T09:50:57;96818.00;;;15.90
56286;BMP180;42191;47.562;9.686;2023-04-28T09:53:25;96818.00;;;15.90
56286;BMP180;42191;47.562;9.686;2023-04-28T09:55:52;96815.00;;;15.90
56286;BMP180;42191;47.562;9.686;2023-04-28T09:58:20;96816.00;;;15.90
56286;BMP180;42191;47.562;9.686;2023-04-28T10:00:52;96822.00;;;15.90
56286;BMP180;42191;47.562;9.686;2023-04-28T10:03:21;96819.00;;;15.90
56286;BMP180;42191;47.562;9.686;2023-04-28T10:05:48;96821.00;;;16.00
56286;BMP180;42191;47.562;9.686;2023-04-28T10:08:16;96815.00;;;16.00
56286;BMP180;42191;47.562;9.686;2023-04-28T10:10:43;96812.00;;;16.00
56286;BMP180;42191;47.562;9.686;2023-04-28T10:13:09;96820.00;;;16.00
56286;BMP180;42191;47.562;9.686;2023-04-28T10:15:36;96818.00;;;16.00
56286;BMP180;42191;47.562;9.686;2023-04-28T10:18:03;96819.00;;;16.00
56286;BMP180;42191;47.562;9.686;2023-04-28T10:20:30;96830.00;;;16.10
56286;BMP180;42191;47.562;9.686;2023-04-28T10:25:43;96828.00;;;16.20
56286;BMP180;42191;47.562;9.686;2023-04-28T10:28:13;96819.00;;;16.20
56286;BMP180;42191;47.562;9.686;2023-04-28T10:30:39;96814.00;;;16.30
56286;BMP180;42191;47.562;9.686;2023-04-28T10:35:43;96808.00;;;16.30
56286;BMP180;42191;47.562;9.686;2023-04-28T10:38:15;96798.00;;;16.30
56286;BMP180;42191;47.562;9.686;2023-04-28T10:40:43;96788.00;;;16.30
56286;BMP180;42191;47.562;9.686;2023-04-28T10:43:12;96790.00;;;16.30
56286;BMP180;42191;47.562;9.686;2023-04-28T10:48:22;96786.00;;;16.30
56286;BMP180;42191;47.562;9.686;2023-04-28T10:56:14;96809.00;;;16.30
56286;BMP180;42191;47.562;9.686;2023-04-28T10:58:42;96812.00;;;16.30
56286;BMP180;42191;47.562;9.686;2023-04-28T11:03:54;96819.00;;;16.40
56286;BMP180;42191;47.562;9.686;2023-04-28T11:06:36;96811.00;;;16.40
56286;BMP180;42191;47.562;9.686;2023-04-28T11:19:27;96812.00;;;16.70
56286;BMP180;42191;47.562;9.686;2023-04-28T11:21:55;96805.00;;;16.80
56286;BMP180;42191;47.562;9.686;2023-04-28T11:24:22;96807.00;;;16.80
56286;BMP180;42191;47.562;9.686;2023-04-28T11:26:50;96813.00;;;16.90
56286;BMP180;42191;47.562;9.686;2023-04-28T11:29:17;96808.00;;;16.90
56286;BMP180;42191;47.562;9.686;2023-04-28T11:31:50;96811.00;;;16.90
56286;BMP180;42191;47.562;9.686;2023-04-28T11:34:19;96807.00;;;17.00
56286;BMP180;42191;47.562;9.686;2023-04-28T11:36:46;96812.00;;;17.00
56286;BMP180;42191;47.562;9.686;2023-04-28T11:39:13;96818.00;;;17.00
56286;BMP180;42191;47.562;9.686;2023-04-28T11:41:42;96806.00;;;17.00
56286;BMP180;42191;47.562;9.686;2023-04-28T11:44:16;96808.00;;;17.00
56286;BMP180;42191;47.562;9.686;2023-04-28T11:46:47;96813.00;;;17.00
56286;BMP180;42191;47.562;9.686;2023-04-28T11:49:21;96804.00;;;17.00
56286;BMP180;42191;47.562;9.686;2023-04-28T11:51:50;96804.00;;;16.90
56286;BMP180;42191;47.562;9.686;2023-04-28T11:54:28;96805.00;;;16.90
56286;BMP180;42191;47.562;9.686;2023-04-28T11:56:56;96796.00;;;16.90
56286;BMP180;42191;47.562;9.686;2023-04-28T11:59:24;96804.00;;;16.90
56286;BMP180;42191;47.562;9.686;2023-04-28T12:01:55;96810.00;;;16.90
56286;BMP180;42191;47.562;9.686;2023-04-28T12:04:34;96812.00;;;16.90
56286;BMP180;42191;47.562;9.686;2023-04-28T12:07:18;96809.00;;;16.90
56286;BMP180;42191;47.562;9.686;2023-04-28T12:09:46;96797.00;;;16.90
56286;BMP180;42191;47.562;9.686;2023-04-28T12:12:20;96795.00;;;17.00
56286;BMP180;42191;47.562;9.686;2023-04-28T12:15:03;96796.00;;;17.00
56286;BMP180;42191;47.562;9.686;2023-04-28T12:17:40;96797.00;;;17.10
56286;BMP180;42191;47.562;9.686;2023-04-28T12:20:09;96791.00;;;17.10
56286;BMP180;42191;47.562;9.686;2023-04-28T12:22:49;96815.00;;;17.20
56286;BMP180;42191;47.562;9.686;2023-04-28T12:25:18;96800.00;;;17.30
56286;BMP180;42191;47.562;9.686;2023-04-28T12:28:02;96807.00;;;17.40
56286;BMP180;42191;47.562;9.686;2023-04-28T12:30:29;96801.00;;;17.40
56286;BMP180;42191;47.562;9.686;2023-04-28T12:32:56;96798.00;;;17.50
56286;BMP180;42191;47.562;9.686;2023-04-28T12:35:23;96804.00;;;17.60
56286;BMP180;42191;47.562;9.686;2023-04-28T12:37:50;96805.00;;;17.60
56286;BMP180;42191;47.562;9.686;2023-04-28T12:40:18;96801.00;;;17.70
56286;BMP180;42191;47.562;9.686;2023-04-28T12:42:44;96811.00;;;17.70
56286;BMP180;42191;47.562;9.686;2023-04-28T12:45:10;96810.00;;;17.80
56286;BMP180;42191;47.562;9.686;2023-04-28T12:47:37;96809.00;;;17.80
56286;BMP180;42191;47.562;9.686;2023-04-28T12:50:05;96803.00;;;17.90
56286;BMP180;42191;47.562;9.686;2023-04-28T12:52:31;96788.00;;;18.00
56286;BMP180;42191;47.562;9.686;2023-04-28T12:54:59;96787.00;;;18.20
56286;BMP180;42191;47.562;9.686;2023-04-28T12:57:25;96791.00;;;18.30
56286;BMP180;42191;47.562;9.686;2023-04-28T12:59:52;96778.00;;;18.40
56286;BMP180;42191;47.562;9.686;2023-04-28T13:02:18;96780.00;;;18.60
56286;BMP180;42191;47.562;9.686;2023-04-28T13:04:45;96766.00;;;18.70
56286;BMP180;42191;47.562;9.686;2023-04-28T13:07:12;96776.00;;;18.80
56286;BMP180;42191;47.562;9.686;2023-04-28T13:09:38;96770.00;;;18.80
56286;BMP180;42191;47.562;9.686;2023-04-28T13:12:04;96767.00;;;18.90
56286;BMP180;42191;47.562;9.686;2023-04-28T13:14:30;96769.00;;;19.00
56286;BMP180;42191;47.562;9.686;2023-04-28T13:16:57;96766.00;;;19.10
56286;BMP180;42191;47.562;9.686;2023-04-28T13:19:23;96768.00;;;19.10
56286;BMP180;42191;47.562;9.686;2023-04-28T13:21:49;96763.00;;;19.10
56286;BMP180;42191;47.562;9.686;2023-04-28T13:24:16;96763.00;;;19.10
56286;BMP180;42191;47.562;9.686;2023-04-28T13:26:42;96765.00;;;19.10
56286;BMP180;42191;47.562;9.686;2023-04-28T13:29:11;96758.00;;;19.20
56286;BMP180;42191;47.562;9.686;2023-04-28T13:31:37;96762.00;;;19.20
56286;BMP180;42191;47.562;9.686;2023-04-28T13:34:03;96746.00;;;19.20
56286;BMP180;42191;47.562;9.686;2023-04-28T13:36:31;96748.00;;;19.20
56286;BMP180;42191;47.562;9.686;2023-04-28T13:38:58;96742.00;;;19.20
56286;BMP180;42191;47.562;9.686;2023-04-28T13:41:24;96744.00;;;19.20
56286;BMP180;42191;47.562;9.686;2023-04-28T13:43:51;96739.00;;;19.30
56286;BMP180;42191;47.562;9.686;2023-04-28T13:46:17;96736.00;;;19.30
56286;BMP180;42191;47.562;9.686;2023-04-28T13:48:43;96731.00;;;19.30
56286;BMP180;42191;47.562;9.686;2023-04-28T13:51:10;96725.00;;;19.40
56286;BMP180;42191;47.562;9.686;2023-04-28T13:53:36;96729.00;;;19.40
56286;BMP180;42191;47.562;9.686;2023-04-28T13:56:04;96724.00;;;19.50
56286;BMP180;42191;47.562;9.686;2023-04-28T13:58:30;96723.00;;;19.50
56286;BMP180;42191;47.562;9.686;2023-04-28T14:00:57;96734.00;;;19.60
56286;BMP180;42191;47.562;9.686;2023-04-28T14:03:24;96717.00;;;19.60
56286;BMP180;42191;47.562;9.686;2023-04-28T14:05:52;96722.00;;;19.70
56286;BMP180;42191;47.562;9.686;2023-04-28T14:08:19;96720.00;;;19.60
56286;BMP180;42191;47.562;9.686;2023-04-28T14:10:45;96720.00;;;19.70
56286;BMP180;42191;47.562;9.686;2023-04-28T14:13:13;96718.00;;;19.70
56286;BMP180;42191;47.562;9.686;2023-04-28T14:15:39;96723.00;;;19.70
56286;BMP180;42191;47.562;9.686;2023-04-28T14:18:07;96731.00;;;19.70
56286;BMP180;42191;47.562;9.686;2023-04-28T14:20:34;96715.00;;;19.80
56286;BMP180;42191;47.562;9.686;2023-04-28T14:23:02;96715.00;;;19.80
56286;BMP180;42191;47.562;9.686;2023-04-28T14:25:28;96713.00;;;19.80
56286;BMP180;42191;47.562;9.686;2023-04-28T14:27:54;96705.00;;;19.80
56286;BMP180;42191;47.562;9.686;2023-04-28T14:30:21;96702.00;;;20.00
56286;BMP180;42191;47.562;9.686;2023-04-28T14:32:48;96696.00;;;20.10
56286;BMP180;42191;47.562;9.686;2023-04-28T14:35:15;96699.00;;;20.20
56286;BMP180;42191;47.562;9.686;2023-04-28T14:37:41;96689.00;;;20.30
56286;BMP180;42191;47.562;9.686;2023-04-28T14:40:08;96701.00;;;20.30